createdAt,value
2018-02-05T00:01:28.398Z,25.73
2018-02-05T00:03:57.629Z,21.00
2018-02-05T00:06:26.726Z,25.43
2018-02-05T00:08:56.819Z,24.20
2018-02-05T00:11:25.919Z,22.80
2018-02-05T00:13:55.009Z,20.90
2018-02-05T00:16:24.120Z,22.90
2018-02-05T00:18:53.220Z,22.93
2018-02-05T00:21:22.354Z,22.50
2018-02-05T00:23:52.204Z,21.70
2018-02-05T00:26:21.317Z,20.90
2018-02-05T00:28:51.926Z,22.20
2018-02-05T00:31:21.009Z,22.17
2018-02-05T00:33:50.138Z,22.43
2018-02-05T00:36:19.409Z,22.97
2018-02-05T00:38:48.510Z,22.83
2018-02-05T00:41:17.670Z,22.73
2018-02-05T00:43:46.770Z,24.07
2018-02-05T00:46:15.894Z,21.50
2018-02-05T00:48:45.012Z,22.90
2018-02-05T00:51:14.125Z,22.43
2018-02-05T00:53:43.249Z,23.40
2018-02-05T00:56:13.148Z,20.87
2018-02-05T00:58:43.762Z,22.03
2018-02-05T01:01:12.862Z,21.67
2018-02-05T01:03:41.958Z,27.67
2018-02-05T01:06:11.054Z,21.77
2018-02-05T01:08:41.049Z,22.67
2018-02-05T01:11:10.158Z,20.83
2018-02-05T01:13:39.240Z,21.43
2018-02-05T01:16:08.351Z,22.90
2018-02-05T01:18:37.454Z,26.23
2018-02-05T01:21:06.550Z,23.40
2018-02-05T01:23:35.666Z,20.10
2018-02-05T01:26:05.545Z,20.13
2018-02-05T01:28:34.658Z,20.20
2018-02-05T01:31:03.767Z,18.17
2018-02-05T01:33:32.868Z,17.07
2018-02-05T01:36:02.747Z,19.33
2018-02-05T01:38:32.585Z,20.30
2018-02-05T01:41:02.492Z,21.73
2018-02-05T01:43:31.592Z,19.10
2018-02-05T01:46:00.704Z,19.63
2018-02-05T01:48:30.554Z,24.10
2018-02-05T01:50:59.667Z,22.50
2018-02-05T01:53:28.763Z,22.40
2018-02-05T01:55:57.878Z,23.17
2018-02-05T01:58:26.966Z,23.30
2018-02-05T02:00:56.057Z,23.20
2018-02-05T02:03:25.167Z,22.07
2018-02-05T02:05:54.310Z,21.90
2018-02-05T02:08:24.161Z,24.00
2018-02-05T02:10:53.252Z,23.57
2018-02-05T02:13:22.346Z,24.30
2018-02-05T02:15:51.437Z,23.70
2018-02-05T02:18:20.547Z,22.80
2018-02-05T02:20:49.662Z,23.87
2018-02-05T02:23:18.771Z,23.43
2018-02-05T02:25:48.617Z,22.73
2018-02-05T02:28:17.717Z,23.17
2018-02-05T02:30:46.818Z,25.10
2018-02-05T02:33:15.916Z,23.53
2018-02-05T02:35:45.029Z,24.60
2018-02-05T02:38:14.135Z,24.40
2018-02-05T02:40:43.833Z,26.33
2018-02-05T02:43:12.940Z,21.80
2018-02-05T02:45:42.071Z,22.30
2018-02-05T02:48:11.913Z,22.93
2018-02-05T02:50:41.024Z,24.57
2018-02-05T02:53:10.128Z,23.37
2018-02-05T02:55:39.214Z,23.10
2018-02-05T02:58:09.101Z,22.93
2018-02-05T03:00:38.961Z,22.97
2018-02-05T03:03:08.069Z,26.33
2018-02-05T03:05:37.186Z,22.83
2018-02-05T03:08:06.275Z,23.83
2018-02-05T03:10:35.391Z,20.80
2018-02-05T03:13:05.261Z,21.47
2018-02-05T03:15:34.393Z,23.90
2018-02-05T03:18:04.247Z,22.37
2018-02-05T03:20:33.334Z,22.23
2018-02-05T03:23:03.445Z,21.07
2018-02-05T03:25:32.554Z,23.83
2018-02-05T03:28:01.676Z,23.43
2018-02-05T03:30:30.802Z,21.90
2018-02-05T03:32:59.902Z,20.07
2018-02-05T03:35:29.792Z,23.80
2018-02-05T03:37:58.926Z,19.87
2018-02-05T03:40:28.780Z,21.07
2018-02-05T03:42:57.894Z,21.00
2018-02-05T03:45:27.007Z,21.40
2018-02-05T03:47:56.097Z,19.63
2018-02-05T03:50:28.047Z,18.97
2018-02-05T03:52:57.293Z,20.50
2018-02-05T03:55:27.141Z,19.23
2018-02-05T03:57:56.252Z,20.87
2018-02-05T04:00:25.350Z,21.63
2018-02-05T04:02:54.457Z,22.13
2018-02-05T04:05:23.569Z,20.97
2018-02-05T04:07:53.434Z,18.97
2018-02-05T04:10:22.552Z,20.30
2018-02-05T04:12:51.654Z,22.80
2018-02-05T04:15:22.254Z,22.60
2018-02-05T04:17:51.548Z,20.03
2018-02-05T04:20:21.016Z,21.83
2018-02-05T04:22:50.114Z,22.73
2018-02-05T04:25:19.978Z,20.60
2018-02-05T04:27:49.099Z,21.70
2018-02-05T04:30:18.178Z,20.13
2018-02-05T04:32:47.302Z,21.20
2018-02-05T04:35:16.408Z,20.87
2018-02-05T04:37:45.514Z,21.70
2018-02-05T04:40:15.374Z,21.77
2018-02-05T04:42:44.487Z,19.97
2018-02-05T04:45:14.333Z,21.70
2018-02-05T04:47:44.221Z,19.50
2018-02-05T04:50:13.326Z,22.17
2018-02-05T04:52:42.480Z,21.37
2018-02-05T04:55:11.553Z,21.73
2018-02-05T04:57:40.685Z,22.60
2018-02-05T05:00:10.544Z,21.37
2018-02-05T05:02:40.406Z,22.20
2018-02-05T05:05:09.517Z,24.10
2018-02-05T05:07:38.619Z,22.17
2018-02-05T05:10:07.744Z,21.90
2018-02-05T05:12:36.833Z,22.80
2018-02-05T05:15:06.702Z,23.37
2018-02-05T05:17:35.809Z,22.50
2018-02-05T05:20:04.903Z,21.20
2018-02-05T05:22:34.002Z,22.80
2018-02-05T05:25:03.100Z,24.50
2018-02-05T05:27:32.229Z,24.30
2018-02-05T05:30:02.089Z,24.40
2018-02-05T05:32:31.290Z,22.83
2018-02-05T05:35:00.948Z,22.00
2018-02-05T05:37:30.893Z,23.30
2018-02-05T05:40:00.785Z,23.00
2018-02-05T05:42:29.888Z,22.00
2018-02-05T05:44:59.777Z,22.33
2018-02-05T05:47:30.285Z,21.37
2018-02-05T05:50:00.165Z,22.20
2018-02-05T05:52:29.260Z,20.40
2018-02-05T05:54:58.395Z,21.73
2018-02-05T05:57:29.029Z,22.13
2018-02-05T05:59:58.125Z,21.10
2018-02-05T06:02:27.225Z,22.97
2018-02-05T06:04:56.345Z,19.97
2018-02-05T06:07:26.204Z,20.50
2018-02-05T06:09:56.302Z,20.93
2018-02-05T06:12:25.929Z,21.87
2018-02-05T06:14:55.027Z,20.93
2018-02-05T06:17:24.148Z,21.53
2018-02-05T06:19:53.243Z,21.93
2018-02-05T06:22:22.363Z,21.60
2018-02-05T06:24:51.443Z,21.90
2018-02-05T06:27:20.566Z,23.90
2018-02-05T06:29:49.658Z,22.80
2018-02-05T06:32:19.532Z,21.43
2018-02-05T06:34:49.401Z,22.70
2018-02-05T06:37:19.297Z,23.63
2018-02-05T06:39:48.415Z,23.00
2018-02-05T06:42:18.302Z,21.63
2018-02-05T06:44:47.403Z,21.07
2018-02-05T06:47:16.497Z,22.30
2018-02-05T06:49:45.614Z,23.40
2018-02-05T07:05:47.785Z,23.77
2018-02-05T07:08:17.856Z,23.77
2018-02-05T07:10:46.981Z,24.03
2018-02-05T07:13:17.830Z,23.23
2018-02-05T07:15:51.006Z,22.70
2018-02-05T07:18:20.091Z,23.90
2018-02-05T07:20:49.185Z,22.40
2018-02-05T07:23:18.302Z,22.60
2018-02-05T07:25:48.171Z,22.00
2018-02-05T07:28:18.512Z,20.80
2018-02-05T07:30:47.581Z,23.80
2018-02-05T07:33:19.344Z,24.47
2018-02-05T07:35:48.424Z,25.50
2018-02-05T07:38:17.541Z,21.90
2018-02-05T07:40:46.638Z,22.40
2018-02-05T07:43:15.733Z,22.10
2018-02-05T07:45:44.874Z,22.10
2018-02-05T07:48:14.718Z,22.80
2018-02-05T07:50:44.605Z,20.53
2018-02-05T07:53:14.477Z,21.23
2018-02-05T07:55:43.574Z,21.00
2018-02-05T07:58:12.700Z,21.33
2018-02-05T08:00:42.551Z,21.47
2018-02-05T08:03:11.655Z,19.73
2018-02-05T08:05:40.757Z,20.93
2018-02-05T08:08:09.873Z,20.67
2018-02-05T08:10:39.726Z,21.00
2018-02-05T08:13:09.597Z,22.07
2018-02-05T08:15:38.710Z,20.77
2018-02-05T08:18:07.815Z,21.23
2018-02-05T08:20:36.929Z,20.13
2018-02-05T08:23:06.781Z,22.90
2018-02-05T08:25:35.906Z,19.07
2018-02-05T08:28:05.013Z,22.50
2018-02-05T08:30:34.125Z,21.97
2018-02-05T08:33:03.976Z,19.10
2018-02-05T08:35:33.093Z,19.50
2018-02-05T08:38:02.956Z,23.87
2018-02-05T08:40:32.808Z,22.60
2018-02-05T08:43:01.905Z,21.13
2018-02-05T08:45:31.011Z,19.50
2018-02-05T08:48:00.113Z,19.30
2018-02-05T08:50:29.221Z,20.20
2018-02-05T08:52:58.363Z,22.80
2018-02-05T08:55:27.462Z,21.20
2018-02-05T08:57:56.561Z,19.53
2018-02-05T09:00:25.694Z,19.87
2018-02-05T09:02:54.792Z,20.90
2018-02-05T09:05:23.899Z,21.20
2018-02-05T09:07:53.010Z,20.60
2018-02-05T09:10:22.137Z,19.70
2018-02-05T09:12:51.327Z,18.40
2018-02-05T09:15:20.411Z,20.40
2018-02-05T09:17:50.273Z,20.50
2018-02-05T09:20:19.371Z,19.53
2018-02-05T09:22:48.485Z,20.67
2018-02-05T09:25:17.627Z,20.33
2018-02-05T09:27:46.686Z,21.73
2018-02-05T09:30:15.764Z,21.53
2018-02-05T09:32:44.877Z,19.60
2018-02-05T09:35:14.745Z,19.67
2018-02-05T09:37:44.425Z,19.73
2018-02-05T09:40:13.553Z,20.43
2018-02-05T09:42:42.641Z,19.57
2018-02-05T09:45:11.764Z,20.23
2018-02-05T09:47:40.846Z,21.13
2018-02-05T09:50:09.951Z,19.60
2018-02-05T09:52:39.053Z,21.60
2018-02-05T09:55:08.139Z,18.27
2018-02-05T09:57:37.276Z,20.73
2018-02-05T10:00:06.371Z,19.40
2018-02-05T10:02:35.473Z,21.47
2018-02-05T10:05:05.355Z,18.87
2018-02-05T10:07:34.465Z,20.20
2018-02-05T10:10:04.339Z,18.90
2018-02-05T10:12:33.457Z,20.00
2018-02-05T10:15:03.274Z,20.80
2018-02-05T10:17:32.382Z,19.77
2018-02-05T10:20:01.489Z,19.50
2018-02-05T10:22:30.629Z,18.93
2018-02-05T10:24:59.698Z,19.10
2018-02-05T10:27:29.666Z,18.60
2018-02-05T10:29:58.780Z,18.37
2018-02-05T10:32:27.899Z,19.07
2018-02-05T10:34:57.010Z,18.50
2018-02-05T10:37:26.901Z,17.10
2018-02-05T10:39:56.025Z,15.67
2018-02-05T10:42:25.878Z,16.70
2018-02-05T10:44:54.962Z,18.97
2018-02-05T10:47:24.953Z,16.33
2018-02-05T10:49:54.052Z,17.67
2018-02-05T10:52:23.171Z,17.03
2018-02-05T10:54:53.039Z,19.37
2018-02-05T10:57:22.155Z,18.20
2018-02-05T10:59:51.258Z,17.07
2018-02-05T11:02:20.355Z,17.47
2018-02-05T11:04:49.473Z,17.40
2018-02-05T11:07:18.561Z,18.10
2018-02-05T11:09:47.678Z,18.87
2018-02-05T11:12:17.603Z,17.40
2018-02-05T11:14:46.739Z,16.13
2018-02-05T11:17:16.598Z,15.13
2018-02-05T11:19:45.726Z,19.03
2018-02-05T11:22:15.207Z,17.77
2018-02-05T11:24:44.307Z,17.67
2018-02-05T11:27:14.964Z,16.00
2018-02-05T11:29:45.218Z,18.10
2018-02-05T11:32:15.801Z,16.93
2018-02-05T11:34:44.899Z,17.87
2018-02-05T11:37:14.022Z,17.40
2018-02-05T11:39:43.869Z,16.47
2018-02-05T11:42:12.979Z,15.90
2018-02-05T11:44:42.114Z,17.00
2018-02-05T11:47:12.723Z,18.00
2018-02-05T11:49:42.183Z,15.83
2018-02-05T11:52:11.308Z,18.33
2018-02-05T11:54:41.179Z,16.30
2018-02-05T11:57:11.074Z,16.50
2018-02-05T11:59:40.195Z,17.53
2018-02-05T12:02:09.302Z,16.60
2018-02-05T12:04:38.394Z,17.53
2018-02-05T12:07:07.505Z,16.67
2018-02-05T12:09:36.607Z,16.00
2018-02-05T12:12:05.760Z,16.47
2018-02-05T12:14:35.605Z,16.73
2018-02-05T12:17:04.753Z,17.30
2018-02-05T12:19:33.825Z,16.80
2018-02-05T12:22:04.566Z,16.57
2018-02-05T12:24:33.691Z,15.40
2018-02-05T12:27:03.575Z,16.47
2018-02-05T12:29:32.661Z,17.10
2018-02-05T12:32:01.771Z,16.40
2018-02-05T12:34:30.892Z,16.40
2018-02-05T12:37:01.554Z,16.90
2018-02-05T12:39:30.666Z,17.07
2018-02-05T12:42:00.662Z,15.43
2018-02-05T12:44:30.507Z,16.40
2018-02-05T12:47:00.278Z,17.20
2018-02-05T12:49:30.166Z,15.27
2018-02-05T12:51:59.278Z,16.37
2018-02-05T12:54:28.396Z,15.80
2018-02-05T12:56:58.293Z,15.77
2018-02-05T12:59:27.370Z,15.60
2018-02-05T13:01:57.325Z,16.40
2018-02-05T13:07:34.153Z,15.87
2018-02-05T13:10:03.281Z,15.83
2018-02-05T13:12:33.334Z,16.03
2018-02-05T13:15:03.200Z,15.33
2018-02-05T13:17:32.313Z,14.73
2018-02-05T13:20:01.431Z,14.90
2018-02-05T13:22:30.529Z,14.83
2018-02-05T13:25:00.389Z,16.70
2018-02-05T13:27:29.572Z,15.23
2018-02-05T13:29:58.667Z,15.80
2018-02-05T13:32:27.779Z,15.90
2018-02-05T13:34:56.919Z,15.60
2018-02-05T13:37:26.023Z,15.90
2018-02-05T13:39:56.680Z,14.77
2018-02-05T13:42:25.836Z,16.80
2018-02-05T13:44:54.951Z,15.93
2018-02-05T13:47:24.811Z,16.20
2018-02-05T13:49:53.961Z,15.60
2018-02-05T13:52:24.063Z,15.20
2018-02-05T13:54:58.760Z,16.03
2018-02-05T13:57:31.479Z,16.60
2018-02-05T14:00:00.584Z,15.50
2018-02-05T14:02:30.468Z,17.13
2018-02-05T14:04:59.607Z,15.77
2018-02-05T14:07:29.487Z,15.53
2018-02-05T14:09:58.652Z,15.33
2018-02-05T14:12:28.783Z,14.17
2018-02-05T14:14:57.914Z,15.60
2018-02-05T14:17:27.973Z,14.60
2018-02-05T14:19:57.091Z,14.67
2018-02-05T14:22:27.026Z,14.47
2018-02-05T14:24:56.124Z,13.83
2018-02-05T14:27:25.265Z,14.23
2018-02-05T14:29:54.377Z,14.33
2018-02-05T14:32:23.486Z,15.00
2018-02-05T14:34:53.345Z,14.10
2018-02-05T14:37:25.232Z,14.13
2018-02-05T14:39:54.333Z,15.17
2018-02-05T14:42:23.550Z,14.13
2018-02-05T14:44:52.679Z,14.90
2018-02-05T14:47:21.815Z,16.07
2018-02-05T14:49:51.679Z,14.87
2018-02-05T14:52:21.574Z,13.53
2018-02-05T14:54:50.660Z,14.20
2018-02-05T14:57:19.777Z,14.77
2018-02-05T14:59:48.904Z,14.47
2018-02-05T15:02:18.006Z,13.40
2018-02-05T15:04:47.857Z,14.30
2018-02-05T15:07:17.814Z,14.53
2018-02-05T15:09:46.938Z,13.10
2018-02-05T15:12:16.795Z,15.40
2018-02-05T15:14:45.938Z,15.10
2018-02-05T15:17:15.049Z,14.23
2018-02-05T15:19:44.952Z,14.77
2018-02-05T15:22:14.817Z,14.77
2018-02-05T15:24:43.935Z,15.90
2018-02-05T15:27:13.030Z,14.97
2018-02-05T15:29:42.147Z,14.17
2018-02-05T15:32:12.268Z,12.90
2018-02-05T15:34:42.411Z,15.73
2018-02-05T15:37:13.344Z,12.50
2018-02-05T15:39:43.256Z,13.27
2018-02-05T15:42:13.405Z,13.70
2018-02-05T15:44:43.456Z,13.73
2018-02-05T15:47:12.553Z,13.30
2018-02-05T15:49:41.682Z,12.73
2018-02-05T15:52:10.782Z,14.27
2018-02-05T15:54:40.677Z,12.90
2018-02-05T15:57:09.774Z,12.13
2018-02-05T15:59:38.866Z,12.57
2018-02-05T16:02:07.987Z,11.90
2018-02-05T16:04:37.879Z,14.10
2018-02-05T16:07:07.013Z,12.10
2018-02-05T16:09:36.156Z,12.50
2018-02-05T16:12:05.240Z,13.53
2018-02-05T16:14:34.351Z,11.90
2018-02-05T16:17:03.531Z,13.40
2018-02-05T16:19:32.662Z,14.40
2018-02-05T16:22:01.790Z,13.53
2018-02-05T16:24:30.907Z,13.80
2018-02-05T16:27:00.040Z,13.10
2018-02-05T16:29:29.152Z,13.87
2018-02-05T16:31:59.076Z,13.33
2018-02-05T16:34:28.265Z,13.97
2018-02-05T16:36:57.387Z,14.30
2018-02-05T16:39:26.506Z,14.20
2018-02-05T16:41:55.646Z,15.77
2018-02-05T16:44:24.745Z,14.00
2018-02-05T16:46:53.887Z,13.50
2018-02-05T16:49:22.981Z,13.57
2018-02-05T16:51:52.096Z,14.47
2018-02-05T16:54:21.202Z,13.10
2018-02-05T16:56:50.338Z,13.93
2018-02-05T16:59:20.209Z,15.83
2018-02-05T17:01:49.332Z,13.77
2018-02-05T17:04:18.475Z,14.30
2018-02-05T17:06:47.591Z,12.90
2018-02-05T17:09:16.728Z,13.17
2018-02-05T17:11:45.835Z,14.00
2018-02-05T17:14:15.732Z,14.30
2018-02-05T17:16:45.710Z,14.30
2018-02-05T17:19:15.609Z,15.77
2018-02-05T17:21:45.207Z,15.60
2018-02-05T17:24:15.957Z,15.70
2018-02-05T17:26:45.050Z,16.13
2018-02-05T17:29:14.179Z,16.67
2018-02-05T17:31:43.309Z,14.13
2018-02-05T17:34:13.180Z,12.90
2018-02-05T17:36:43.106Z,13.70
2018-02-05T17:39:12.234Z,15.40
2018-02-05T17:41:41.334Z,15.93
2018-02-05T17:44:10.445Z,16.10
2018-02-05T17:46:39.947Z,14.00
2018-02-05T17:49:09.832Z,13.57
2018-02-05T17:51:38.949Z,13.67
2018-02-05T17:54:11.103Z,14.10
2018-02-05T17:56:40.226Z,13.77
2018-02-05T17:59:10.190Z,14.10
2018-02-05T18:01:40.930Z,15.23
2018-02-05T18:04:10.500Z,14.03
2018-02-05T18:06:39.620Z,14.27
2018-02-05T18:09:08.732Z,14.97
2018-02-05T18:11:37.847Z,16.10
2018-02-05T18:14:06.944Z,14.80
2018-02-05T18:16:36.838Z,15.77
2018-02-05T18:19:05.939Z,14.03
2018-02-05T18:21:35.129Z,15.70
2018-02-05T18:24:04.267Z,14.60
2018-02-05T18:26:34.139Z,16.50
2018-02-05T18:29:03.270Z,16.57
2018-02-05T18:31:33.405Z,13.77
2018-02-05T18:34:02.573Z,14.40
2018-02-05T18:36:31.709Z,14.10
2018-02-05T18:39:00.800Z,14.80
2018-02-05T18:41:29.967Z,15.30
2018-02-05T18:43:59.088Z,14.37
2018-02-05T18:46:29.866Z,14.93
2018-02-05T18:48:59.002Z,13.17
2018-02-05T18:51:30.339Z,14.20
2018-02-05T18:54:03.957Z,13.80
2018-02-05T18:56:44.860Z,13.33
2018-02-05T18:59:14.015Z,13.17
2018-02-05T19:01:43.139Z,15.03
2018-02-05T19:04:13.036Z,13.87
2018-02-05T19:06:43.869Z,11.83
2018-02-05T19:09:13.759Z,12.33
2018-02-05T19:11:42.908Z,12.77
2018-02-05T19:14:12.846Z,13.20
2018-02-05T19:16:41.990Z,14.47
2018-02-05T19:19:11.122Z,12.13
2018-02-05T19:21:40.240Z,13.20
2018-02-05T19:24:09.354Z,11.70
2018-02-05T19:26:38.472Z,12.23
2018-02-05T19:29:07.613Z,13.90
2018-02-05T19:31:37.320Z,14.53
2018-02-05T19:34:06.424Z,12.53
2018-02-05T19:36:35.639Z,12.97
2018-02-05T19:39:04.774Z,11.60
2018-02-05T19:41:35.449Z,11.90
2018-02-05T19:44:05.216Z,12.57
2018-02-05T19:46:35.725Z,12.97
2018-02-05T19:49:04.847Z,12.70
2018-02-05T19:51:34.774Z,12.97
2018-02-05T19:54:04.668Z,12.43
2018-02-05T19:56:33.807Z,12.90
2018-02-05T19:59:02.926Z,12.93
2018-02-05T20:01:32.096Z,11.73
2018-02-05T20:04:01.180Z,11.77
2018-02-05T20:06:30.309Z,13.50
2018-02-05T20:08:59.409Z,11.30
2018-02-05T20:11:28.542Z,12.43
2018-02-05T20:13:57.698Z,12.33
2018-02-05T20:16:26.847Z,13.00
2018-02-05T20:18:56.008Z,16.77
2018-02-05T20:21:25.138Z,12.70
2018-02-05T20:23:55.075Z,13.43
2018-02-05T20:26:24.969Z,14.77
2018-02-05T20:28:54.092Z,11.70
2018-02-05T20:31:23.192Z,12.47
2018-02-05T20:33:52.328Z,13.00
2018-02-05T20:36:21.466Z,13.03
2018-02-05T20:38:51.352Z,13.50
2018-02-05T20:41:20.559Z,12.53
2018-02-05T20:43:49.712Z,11.70
2018-02-05T20:46:18.837Z,12.50
2018-02-05T20:48:47.958Z,13.47
2018-02-05T20:51:18.586Z,12.10
2018-02-05T20:53:47.711Z,13.20
2018-02-05T20:56:17.565Z,12.50
2018-02-05T20:58:46.698Z,11.60
2018-02-05T21:01:16.579Z,12.93
2018-02-05T21:03:45.703Z,11.73
2018-02-05T21:06:15.579Z,13.30
2018-02-05T21:08:44.712Z,12.50
2018-02-05T21:11:14.629Z,11.73
2018-02-05T21:13:43.759Z,14.20
2018-02-05T21:16:13.642Z,12.17
2018-02-05T21:18:43.541Z,13.47
2018-02-05T21:21:12.665Z,12.90
2018-02-05T21:23:42.551Z,14.57
2018-02-05T21:26:11.687Z,13.67
2018-02-05T21:28:40.814Z,13.93
2018-02-05T21:31:10.698Z,12.40
2018-02-05T21:33:40.594Z,13.10
2018-02-05T21:36:10.488Z,13.20
2018-02-05T21:38:39.590Z,13.40
2018-02-05T21:41:08.758Z,13.60
2018-02-05T21:43:38.014Z,12.90
2018-02-05T21:46:07.919Z,12.20
2018-02-05T21:48:37.017Z,13.57
2018-02-05T21:51:06.927Z,13.53
2018-02-05T21:53:36.819Z,12.27
2018-02-05T21:56:05.917Z,14.67
2018-02-05T21:58:35.080Z,13.77
2018-02-05T22:01:04.208Z,12.83
2018-02-05T22:03:34.672Z,12.87
2018-02-05T22:06:03.803Z,13.33
2018-02-05T22:08:32.930Z,13.40
2018-02-05T22:11:02.867Z,13.90
2018-02-05T22:13:32.734Z,14.80
2018-02-05T22:16:02.690Z,14.13
2018-02-05T22:18:31.819Z,14.40
2018-02-05T22:21:00.911Z,14.47
2018-02-05T22:23:30.040Z,14.03
2018-02-05T22:25:59.906Z,14.73
2018-02-05T22:28:29.779Z,14.20
2018-02-05T22:30:58.890Z,13.73
2018-02-05T22:33:28.017Z,14.77
2018-02-05T22:35:57.924Z,14.30
2018-02-05T22:38:27.794Z,13.80
2018-02-05T22:40:56.935Z,13.70
2018-02-05T22:43:26.790Z,13.27
2018-02-05T22:45:55.933Z,13.10
2018-02-05T22:48:25.033Z,13.37
2018-02-05T22:50:54.926Z,13.83
2018-02-05T22:53:24.033Z,15.80
2018-02-05T22:55:53.158Z,13.27
2018-02-05T22:58:22.259Z,13.90
2018-02-05T23:00:51.365Z,13.63
2018-02-05T23:03:20.475Z,15.20
2018-02-05T23:05:49.609Z,14.80
2018-02-05T23:08:18.724Z,14.97
2018-02-05T23:10:48.584Z,14.93
2018-02-05T23:13:17.701Z,13.83
2018-02-05T23:15:46.809Z,14.20
2018-02-05T23:18:15.944Z,13.83
2018-02-05T23:20:45.797Z,13.87
2018-02-05T23:23:14.909Z,14.50
2018-02-05T23:25:44.033Z,13.03
2018-02-05T23:28:13.126Z,14.13
2018-02-05T23:30:43.006Z,13.73
2018-02-05T23:33:12.137Z,13.37
2018-02-05T23:35:42.019Z,13.90
2018-02-05T23:38:11.118Z,14.33
2018-02-05T23:40:40.227Z,13.60
2018-02-05T23:43:09.328Z,15.70
2018-02-05T23:45:38.445Z,14.73
2018-02-05T23:48:09.100Z,15.33
2018-02-05T23:50:39.941Z,15.73
2018-02-05T23:53:09.829Z,14.80
2018-02-05T23:55:39.718Z,14.07
2018-02-05T23:58:08.857Z,14.67
